Time;durP1;ratioP1;P1;durP2;ratioP2;P2;SDS_P1;SDS_P2;PMS_P1;PMS_P2;Temp;Humidity;BMP_temperature;BMP_pressure;BME280_temperature;BME280_humidity;BME280_pressure;Samples;Min_cycle;Max_cycle;Signal;HPM_P1;HPM_P2
2023/06/11 00:01:23;;;;;;;5.50;4.82;;;;;;;;;;4990228;28;20050;-76
2023/06/11 00:03:53;;;;;;;4.63;4.20;;;;;;;;;;4989761;28;20042;-75
2023/06/11 00:06:22;;;;;;;4.85;4.28;;;;;;;;;;4990430;28;20482;-76
2023/06/11 00:08:54;;;;;;;4.95;4.30;;;;;;;;;;4957584;28;20045;-75
2023/06/11 00:11:20;;;;;;;;;;;;;;;;;;4989908;28;20034;-75
2023/06/11 00:13:46;;;;;;;5.60;4.57;;;;;;;;;;4990649;28;19921;-75
2023/06/11 00:16:12;;;;;;;4.68;4.05;;;;;;;;;;4990527;28;20050;-75
2023/06/11 00:18:42;;;;;;;10.20;4.45;;;;;;;;;;4990464;28;20046;-76
2023/06/11 00:21:09;;;;;;;5.47;4.60;;;;;;;;;;4990089;28;20078;-77
2023/06/11 00:23:36;;;;;;;5.38;4.60;;;;;;;;;;4974872;28;20054;-76
2023/06/11 00:26:04;;;;;;;6.30;4.55;;;;;;;;;;4990391;28;20525;-75
2023/06/11 00:28:31;;;;;;;4.80;4.40;;;;;;;;;;4972610;28;20418;-76
2023/06/11 00:30:57;;;;;;;8.18;5.20;;;;;;;;;;4973432;28;20104;-75
2023/06/11 00:33:25;;;;;;;6.53;4.55;;;;;;;;;;4988887;28;20544;-75
2023/06/11 00:35:51;;;;;;;5.47;5.03;;;;;;;;;;4973276;28;20080;-74
2023/06/11 00:38:17;;;;;;;10.07;4.53;;;;;;;;;;4988884;28;20092;-74
2023/06/11 00:40:43;;;;;;;9.10;4.68;;;;;;;;;;4992691;28;20038;-75
2023/06/11 00:43:09;;;;;;;5.00;4.55;;;;;;;;;;4993909;28;20046;-75
2023/06/11 00:45:37;;;;;;;5.35;4.88;;;;;;;;;;4994195;28;20042;-75
2023/06/11 00:48:03;;;;;;;5.25;3.97;;;;;;;;;;4993129;28;20546;-75
2023/06/11 00:50:30;;;;;;;4.80;4.35;;;;;;;;;;4992722;28;20038;-76
2023/06/11 00:52:56;;;;;;;4.32;4.00;;;;;;;;;;4993877;28;20049;-76
2023/06/11 00:55:22;;;;;;;4.57;4.28;;;;;;;;;;4993554;28;20043;-76
2023/06/11 00:57:48;;;;;;;8.07;4.40;;;;;;;;;;4992649;28;20038;-75
2023/06/11 01:00:15;;;;;;;4.85;4.43;;;;;;;;;;4993740;28;20132;-76
2023/06/11 01:02:50;;;;;;;5.22;4.47;;;;;;;;;;4993513;28;20054;-76
2023/06/11 01:05:21;;;;;;;5.68;3.95;;;;;;;;;;4993353;28;20545;-77
2023/06/11 01:07:50;;;;;;;4.63;4.22;;;;;;;;;;4992552;28;20426;-76
2023/06/11 01:10:20;;;;;;;3.88;3.42;;;;;;;;;;4976998;28;20514;-73
2023/06/11 01:12:48;;;;;;;4.35;4.05;;;;;;;;;;4992383;28;20042;-75
2023/06/11 01:15:14;;;;;;;4.38;4.00;;;;;;;;;;4989192;28;20042;-76
2023/06/11 01:17:52;;;;;;;4.22;3.80;;;;;;;;;;5000413;28;20039;-76
2023/06/11 01:20:25;;;;;;;4.28;3.60;;;;;;;;;;4993350;28;20577;-76
2023/06/11 01:23:10;;;;;;;6.20;3.70;;;;;;;;;;4975769;28;20057;-77
2023/06/11 01:25:38;;;;;;;5.05;3.63;;;;;;;;;;4972586;28;20541;-73
2023/06/11 01:28:27;;;;;;;6.63;3.65;;;;;;;;;;4972513;28;20047;-77
2023/06/11 01:30:56;;;;;;;3.85;3.65;;;;;;;;;;4972882;28;20094;-75
2023/06/11 01:33:24;;;;;;;4.55;4.18;;;;;;;;;;4956089;28;20050;-75
2023/06/11 01:35:57;;;;;;;;;;;;;;;;;;4940979;28;20070;-75
2023/06/11 01:38:25;;;;;;;4.28;3.33;;;;;;;;;;4973491;28;19918;-76
2023/06/11 01:40:55;;;;;;;5.00;3.95;;;;;;;;;;4972517;28;20031;-76
2023/06/11 01:43:23;;;;;;;3.70;3.40;;;;;;;;;;4939831;28;20142;-77
2023/06/11 01:45:50;;;;;;;4.00;3.70;;;;;;;;;;4956468;28;20046;-76
2023/06/11 01:48:16;;;;;;;4.18;3.42;;;;;;;;;;4973210;28;20446;-76
2023/06/11 01:50:42;;;;;;;4.18;3.42;;;;;;;;;;4955880;28;20097;-76
2023/06/11 01:53:09;;;;;;;8.10;3.60;;;;;;;;;;4956091;28;20047;-75
2023/06/11 01:55:36;;;;;;;3.42;3.13;;;;;;;;;;4956512;28;20046;-76
2023/06/11 01:58:03;;;;;;;4.25;3.85;;;;;;;;;;4972549;28;20051;-76
2023/06/11 02:00:29;;;;;;;3.53;3.33;;;;;;;;;;4972660;28;20098;-75
2023/06/11 02:02:55;;;;;;;4.20;3.67;;;;;;;;;;4972395;28;20063;-75
2023/06/11 02:05:22;;;;;;;3.70;3.40;;;;;;;;;;4972310;28;20435;-76
2023/06/11 02:07:48;;;;;;;4.63;3.45;;;;;;;;;;4972026;28;20046;-76
2023/06/11 02:10:14;;;;;;;3.72;3.38;;;;;;;;;;4972304;28;20050;-76
2023/06/11 02:12:41;;;;;;;4.32;3.50;;;;;;;;;;4955568;28;20043;-75
2023/06/11 02:15:08;;;;;;;4.80;3.15;;;;;;;;;;4972109;28;20059;-77
2023/06/11 02:17:34;;;;;;;5.57;3.00;;;;;;;;;;4971631;28;20101;-75
2023/06/11 02:20:00;;;;;;;3.58;3.28;;;;;;;;;;4972964;28;20050;-75
2023/06/11 02:22:27;;;;;;;3.15;2.92;;;;;;;;;;4971181;28;20058;-76
2023/06/11 02:24:53;;;;;;;3.33;3.13;;;;;;;;;;4987040;28;20054;-77
2023/06/11 02:27:19;;;;;;;3.15;2.95;;;;;;;;;;4974370;28;20042;-76
2023/06/11 02:29:48;;;;;;;6.22;3.20;;;;;;;;;;4990770;28;20047;-74
2023/06/11 02:32:14;;;;;;;5.80;2.92;;;;;;;;;;4990778;28;20066;-74
2023/06/11 02:34:40;;;;;;;3.33;3.13;;;;;;;;;;4990548;28;20172;-76
2023/06/11 02:37:06;;;;;;;2.78;2.58;;;;;;;;;;4991965;28;20050;-75
2023/06/11 02:39:33;;;;;;;5.28;3.40;;;;;;;;;;4991773;28;20527;-76
2023/06/11 02:41:59;;;;;;;5.68;3.75;;;;;;;;;;4990333;28;20066;-76
2023/06/11 02:44:25;;;;;;;3.28;2.97;;;;;;;;;;4991581;28;20125;-75
2023/06/11 02:46:51;;;;;;;3.17;2.97;;;;;;;;;;4958171;28;20046;-76
2023/06/11 02:49:17;;;;;;;3.30;3.00;;;;;;;;;;4991507;28;20050;-76
2023/06/11 02:51:44;;;;;;;4.90;2.60;;;;;;;;;;4990380;28;20042;-76
2023/06/11 02:54:10;;;;;;;3.15;2.85;;;;;;;;;;4990479;28;20046;-75
2023/06/11 02:56:36;;;;;;;2.60;2.40;;;;;;;;;;4990144;28;20073;-75
2023/06/11 02:59:03;;;;;;;3.20;3.00;;;;;;;;;;4991713;28;20418;-76
2023/06/11 03:01:29;;;;;;;3.80;2.88;;;;;;;;;;4957562;28;20474;-76
2023/06/11 03:03:56;;;;;;;3.30;2.35;;;;;;;;;;4990072;28;20434;-76
2023/06/11 03:06:26;;;;;;;4.00;2.38;;;;;;;;;;5003955;28;20077;-74
2023/06/11 03:08:53;;;;;;;3.80;2.50;;;;;;;;;;4964304;28;20184;-76
2023/06/11 03:11:20;;;;;;;2.60;2.40;;;;;;;;;;4973917;28;20500;-75
2023/06/11 03:13:47;;;;;;;5.80;3.20;;;;;;;;;;4973904;28;20046;-74
2023/06/11 03:16:14;;;;;;;2.63;2.42;;;;;;;;;;4990116;28;20069;-76
2023/06/11 03:18:41;;;;;;;4.97;2.70;;;;;;;;;;4990909;28;20499;-76
2023/06/11 03:21:07;;;;;;;3.22;2.70;;;;;;;;;;4991324;28;20046;-76
2023/06/11 03:23:33;;;;;;;3.72;2.70;;;;;;;;;;4971434;28;20061;-76
2023/06/11 03:26:00;;;;;;;2.50;2.30;;;;;;;;;;4974275;28;20501;-76
2023/06/11 03:28:32;;;;;;;2.33;2.22;;;;;;;;;;4973869;28;20046;-77
2023/06/11 03:30:59;;;;;;;4.22;2.42;;;;;;;;;;4991101;28;20533;-75
2023/06/11 03:33:25;;;;;;;2.70;2.50;;;;;;;;;;4990887;28;20128;-76
2023/06/11 03:35:51;;;;;;;2.28;2.17;;;;;;;;;;4990191;28;20061;-78
2023/06/11 03:38:22;;;;;;;3.45;2.38;;;;;;;;;;4957456;28;20041;-77
2023/06/11 03:40:49;;;;;;;16.67;2.40;;;;;;;;;;4973757;28;20078;-77
2023/06/11 03:43:15;;;;;;;2.30;2.10;;;;;;;;;;4990199;28;20422;-78
2023/06/11 03:45:42;;;;;;;2.33;2.22;;;;;;;;;;4957510;28;20515;-77
2023/06/11 03:48:08;;;;;;;2.65;2.45;;;;;;;;;;4958077;28;20129;-77
2023/06/11 03:50:34;;;;;;;2.55;2.35;;;;;;;;;;4990300;28;20050;-76
2023/06/11 03:53:01;;;;;;;4.10;2.42;;;;;;;;;;4996149;28;20526;-76
2023/06/11 03:55:29;;;;;;;4.50;2.50;;;;;;;;;;4963818;28;20469;-77
2023/06/11 03:57:56;;;;;;;2.60;2.40;;;;;;;;;;4995157;28;20389;-77
2023/06/11 04:00:22;;;;;;;3.38;2.70;;;;;;;;;;4990678;28;20052;-77
2023/06/11 04:02:48;;;;;;;4.88;2.40;;;;;;;;;;4990876;28;20054;-77
2023/06/11 04:05:17;;;;;;;4.45;2.60;;;;;;;;;;4973609;28;20053;-77
2023/06/11 04:07:49;;;;;;;3.13;2.05;;;;;;;;;;4973653;28;20038;-77
2023/06/11 04:10:15;;;;;;;2.13;2.03;;;;;;;;;;4973364;28;20156;-77
2023/06/11 04:12:41;;;;;;;2.10;2.00;;;;;;;;;;4957174;28;20046;-76
2023/06/11 04:15:08;;;;;;;2.33;2.13;;;;;;;;;;4994322;28;20105;-77
2023/06/11 04:17:34;;;;;;;2.75;2.55;;;;;;;;;;4993197;28;20050;-76
2023/06/11 04:20:00;;;;;;;2.67;2.25;;;;;;;;;;4977030;28;20101;-78
2023/06/11 04:22:27;;;;;;;4.40;2.33;;;;;;;;;;4994178;28;20053;-78
2023/06/11 04:24:53;;;;;;;2.67;2.50;;;;;;;;;;4976957;28;20519;-77
2023/06/11 04:27:20;;;;;;;3.70;2.67;;;;;;;;;;4960770;28;20462;-77
2023/06/11 04:29:48;;;;;;;2.60;2.00;;;;;;;;;;4993079;28;20069;-77
2023/06/11 04:32:16;;;;;;;7.45;2.47;;;;;;;;;;4993207;28;20047;-77
2023/06/11 04:34:43;;;;;;;2.40;2.30;;;;;;;;;;4992771;28;20101;-77
2023/06/11 04:37:10;;;;;;;2.97;2.20;;;;;;;;;;4993179;28;20149;-75
2023/06/11 04:39:38;;;;;;;2.15;1.95;;;;;;;;;;4976452;28;20525;-76
2023/06/11 04:42:05;;;;;;;4.80;2.42;;;;;;;;;;4976414;28;20150;-77
2023/06/11 04:44:31;;;;;;;2.22;2.10;;;;;;;;;;4976608;28;20038;-78
2023/06/11 04:46:58;;;;;;;3.80;2.00;;;;;;;;;;4992755;28;20042;-77
2023/06/11 04:49:27;;;;;;;2.50;2.30;;;;;;;;;;4976403;28;20045;-77
2023/06/11 04:51:57;;;;;;;2.53;2.22;;;;;;;;;;4960684;28;20050;-76
2023/06/11 04:54:24;;;;;;;2.13;2.03;;;;;;;;;;4977029;28;20042;-77
2023/06/11 04:56:51;;;;;;;1.90;1.80;;;;;;;;;;4985928;28;20026;-76
2023/06/11 04:59:18;;;;;;;2.28;2.08;;;;;;;;;;4988228;28;20606;-74
2023/06/11 05:01:50;;;;;;;2.25;2.05;;;;;;;;;;4992825;28;20133;-76
2023/06/11 05:04:19;;;;;;;4.50;2.20;;;;;;;;;;4976342;28;20042;-76
2023/06/11 05:06:46;;;;;;;2.03;1.80;;;;;;;;;;4992353;28;20057;-78
2023/06/11 05:09:16;;;;;;;2.37;1.90;;;;;;;;;;4976429;28;20527;-78
2023/06/11 05:11:44;;;;;;;3.45;2.10;;;;;;;;;;4976341;28;20053;-79
2023/06/11 05:14:12;;;;;;;2.65;1.95;;;;;;;;;;4976192;28;20415;-78
2023/06/11 05:16:41;;;;;;;1.98;1.88;;;;;;;;;;4992151;28;20554;-78
2023/06/11 05:19:08;;;;;;;1.75;1.65;;;;;;;;;;4976174;28;20129;-78
2023/06/11 05:21:36;;;;;;;1.90;1.80;;;;;;;;;;4992154;28;20061;-80
2023/06/11 05:24:18;;;;;;;1.90;1.80;;;;;;;;;;4992217;28;20153;-79
2023/06/11 05:26:45;;;;;;;2.13;1.73;;;;;;;;;;4959264;28;20042;-79
2023/06/11 05:29:12;;;;;;;2.65;1.80;;;;;;;;;;4992247;28;20153;-80
2023/06/11 05:31:39;;;;;;;2.97;2.10;;;;;;;;;;4960024;28;20133;-77
2023/06/11 05:34:06;;;;;;;3.58;2.05;;;;;;;;;;4975933;28;20546;-79
2023/06/11 05:36:32;;;;;;;1.80;1.70;;;;;;;;;;4975771;28;20061;-79
2023/06/11 05:38:59;;;;;;;2.15;1.80;;;;;;;;;;4991965;28;20054;-78
2023/06/11 05:41:25;;;;;;;2.95;1.70;;;;;;;;;;4975815;28;20046;-78
2023/06/11 05:43:51;;;;;;;1.98;1.85;;;;;;;;;;4991747;28;20046;-77
2023/06/11 05:46:18;;;;;;;1.65;1.55;;;;;;;;;;4975850;28;20053;-78
2023/06/11 05:48:47;;;;;;;1.80;1.70;;;;;;;;;;4975372;28;20137;-79
2023/06/11 05:51:14;;;;;;;2.13;1.88;;;;;;;;;;4975626;28;20426;-79
2023/06/11 05:53:40;;;;;;;1.60;1.50;;;;;;;;;;4991589;28;20121;-78
2023/06/11 05:56:07;;;;;;;1.70;1.70;;;;;;;;;;4975538;28;20427;-79
2023/06/11 05:58:35;;;;;;;1.73;1.60;;;;;;;;;;4975375;28;20553;-79
2023/06/11 06:01:03;;;;;;;2.10;2.00;;;;;;;;;;4992954;28;20582;-79
2023/06/11 06:03:33;;;;;;;2.67;1.80;;;;;;;;;;4975193;28;20042;-81
2023/06/11 06:06:00;;;;;;;5.90;1.90;;;;;;;;;;4975534;28;20030;-79
2023/06/11 06:08:27;;;;;;;1.60;1.50;;;;;;;;;;4975189;28;20625;-78
2023/06/11 06:10:54;;;;;;;1.92;1.83;;;;;;;;;;4991536;28;20042;-79
2023/06/11 06:13:21;;;;;;;2.50;2.40;;;;;;;;;;4991376;28;20042;-79
2023/06/11 06:15:46;;;;;;;1.67;1.58;;;;;;;;;;4991249;28;20037;-78
2023/06/11 06:18:14;;;;;;;1.80;1.70;;;;;;;;;;4992636;28;20050;-79
2023/06/11 06:20:42;;;;;;;1.58;1.48;;;;;;;;;;4974840;28;20129;-79
2023/06/11 06:23:10;;;;;;;4.82;1.70;;;;;;;;;;4974947;28;20061;-79
2023/06/11 06:25:38;;;;;;;1.65;1.55;;;;;;;;;;4971508;28;20634;-79
2023/06/11 06:28:05;;;;;;;2.80;1.92;;;;;;;;;;4972928;28;20112;-80
2023/06/11 06:30:35;;;;;;;1.50;1.40;;;;;;;;;;4971669;28;20130;-78
2023/06/11 06:33:01;;;;;;;2.07;1.80;;;;;;;;;;4971496;28;20041;-79
2023/06/11 06:35:29;;;;;;;1.88;1.75;;;;;;;;;;4955563;28;20046;-79
2023/06/11 06:37:56;;;;;;;1.98;1.88;;;;;;;;;;4970388;28;20190;-79
2023/06/11 06:40:23;;;;;;;1.95;1.70;;;;;;;;;;4955671;28;20043;-79
2023/06/11 06:42:49;;;;;;;2.20;2.00;;;;;;;;;;4971011;28;20101;-79
2023/06/11 06:45:20;;;;;;;1.90;1.80;;;;;;;;;;4955706;28;20085;-79
2023/06/11 06:47:48;;;;;;;2.58;1.92;;;;;;;;;;4983503;28;20030;-79
2023/06/11 06:50:14;;;;;;;1.73;1.63;;;;;;;;;;4985902;28;20046;-78
2023/06/11 06:52:41;;;;;;;1.73;1.50;;;;;;;;;;4973127;28;20075;-79
2023/06/11 06:55:08;;;;;;;2.08;1.67;;;;;;;;;;4972695;28;20062;-79
2023/06/11 06:57:34;;;;;;;1.58;1.50;;;;;;;;;;4954918;28;20120;-77
2023/06/11 07:00:01;;;;;;;5.70;1.90;;;;;;;;;;4972315;28;20537;-79
2023/06/11 07:02:30;;;;;;;1.77;1.67;;;;;;;;;;4971086;28;20084;-80
2023/06/11 07:04:56;;;;;;;1.83;1.73;;;;;;;;;;4970789;28;20035;-78
2023/06/11 07:07:24;;;;;;;1.90;1.80;;;;;;;;;;4972045;28;20050;-79
2023/06/11 07:09:59;;;;;;;3.13;1.88;;;;;;;;;;5191282;27;20153;-79
2023/06/11 07:12:26;;;;;;;1.50;1.40;;;;;;;;;;5134372;27;20035;-79
2023/06/11 07:14:53;;;;;;;1.85;1.75;;;;;;;;;;5151381;27;20095;-79
2023/06/11 07:17:21;;;;;;;1.90;1.80;;;;;;;;;;5134831;27;20061;-79
2023/06/11 07:19:47;;;;;;;3.45;1.65;;;;;;;;;;5170144;27;20030;-78
2023/06/11 07:22:13;;;;;;;2.75;2.00;;;;;;;;;;5152004;27;20377;-79
2023/06/11 07:24:42;;;;;;;3.65;2.00;;;;;;;;;;5152585;27;20030;-78
2023/06/11 07:27:11;;;;;;;1.73;1.63;;;;;;;;;;5124674;27;20228;-80
2023/06/11 07:29:39;;;;;;;1.92;1.83;;;;;;;;;;5175373;27;20042;-79
2023/06/11 07:32:08;;;;;;;3.90;1.63;;;;;;;;;;5140082;27;20048;-78
2023/06/11 07:34:34;;;;;;;1.85;1.77;;;;;;;;;;5170848;27;20034;-80
2023/06/11 07:37:01;;;;;;;3.75;1.55;;;;;;;;;;5170372;27;20035;-79
2023/06/11 07:39:27;;;;;;;4.57;1.80;;;;;;;;;;5150917;27;20035;-80
2023/06/11 07:41:53;;;;;;;2.05;1.73;;;;;;;;;;5159129;27;20070;-78
2023/06/11 07:44:19;;;;;;;1.83;1.77;;;;;;;;;;5130243;27;20053;-80
2023/06/11 07:46:45;;;;;;;2.15;1.77;;;;;;;;;;5130174;27;20030;-79
2023/06/11 07:49:12;;;;;;;2.63;2.05;;;;;;;;;;5130323;27;20398;-79
2023/06/11 07:51:38;;;;;;;1.98;1.80;;;;;;;;;;5148714;27;20042;-79
2023/06/11 07:54:07;;;;;;;2.72;1.80;;;;;;;;;;5112962;27;20079;-79
2023/06/11 07:56:33;;;;;;;2.08;1.70;;;;;;;;;;5130306;27;20493;-79
2023/06/11 07:58:59;;;;;;;1.75;1.67;;;;;;;;;;5129843;27;20115;-80
2023/06/11 08:01:25;;;;;;;2.08;1.80;;;;;;;;;;5148551;27;20046;-80
2023/06/11 08:03:52;;;;;;;3.67;2.05;;;;;;;;;;5148206;27;20520;-78
2023/06/11 08:06:18;;;;;;;1.70;1.60;;;;;;;;;;5130396;27;20497;-79
2023/06/11 08:08:44;;;;;;;3.08;1.85;;;;;;;;;;5148400;27;20051;-78
2023/06/11 08:11:11;;;;;;;4.38;1.70;;;;;;;;;;5148554;27;20030;-79
2023/06/11 08:13:38;;;;;;;2.15;2.05;;;;;;;;;;5130053;27;20122;-80
2023/06/11 08:16:04;;;;;;;4.68;1.63;;;;;;;;;;5130543;27;20058;-79
2023/06/11 08:18:30;;;;;;;6.70;2.17;;;;;;;;;;5148811;27;20051;-78
2023/06/11 08:20:56;;;;;;;3.25;2.00;;;;;;;;;;5118721;27;20037;-79
2023/06/11 08:23:22;;;;;;;2.60;1.70;;;;;;;;;;5134688;27;20035;-80
2023/06/11 08:25:48;;;;;;;2.45;1.83;;;;;;;;;;5115913;27;20038;-79
2023/06/11 08:28:14;;;;;;;2.10;1.88;;;;;;;;;;5134754;27;20058;-79
2023/06/11 08:30:40;;;;;;;1.77;1.70;;;;;;;;;;5136248;27;20047;-79
2023/06/11 08:33:06;;;;;;;2.33;1.77;;;;;;;;;;5142379;27;20023;-80
2023/06/11 08:35:32;;;;;;;2.17;1.90;;;;;;;;;;5130104;27;20122;-79
2023/06/11 08:37:58;;;;;;;6.22;1.95;;;;;;;;;;5150809;27;20418;-79
2023/06/11 08:40:24;;;;;;;1.40;1.33;;;;;;;;;;5136093;27;20049;-78
2023/06/11 08:42:50;;;;;;;4.20;1.90;;;;;;;;;;5131088;27;20035;-80
2023/06/11 08:45:17;;;;;;;2.13;1.95;;;;;;;;;;5145707;27;20031;-80
2023/06/11 08:47:48;;;;;;;2.75;1.80;;;;;;;;;;5109638;27;20039;-79
2023/06/11 08:50:16;;;;;;;8.98;1.80;;;;;;;;;;5115799;27;20042;-80
2023/06/11 08:52:42;;;;;;;2.28;1.75;;;;;;;;;;5148875;27;20035;-79
2023/06/11 08:55:08;;;;;;;9.70;1.90;;;;;;;;;;5149085;27;20053;-79
2023/06/11 08:57:34;;;;;;;6.28;1.63;;;;;;;;;;5132128;27;20031;-80
2023/06/11 09:00:00;;;;;;;1.85;1.75;;;;;;;;;;5130986;27;20031;-79
2023/06/11 09:02:26;;;;;;;1.80;1.70;;;;;;;;;;5142313;27;20046;-80
2023/06/11 09:04:52;;;;;;;2.50;1.88;;;;;;;;;;5115782;27;20035;-78
2023/06/11 09:07:22;;;;;;;1.98;1.88;;;;;;;;;;5134458;27;20083;-77
2023/06/11 09:09:51;;;;;;;2.57;1.90;;;;;;;;;;5133388;27;20069;-78
2023/06/11 09:12:18;;;;;;;3.05;1.92;;;;;;;;;;5115541;27;20474;-79
2023/06/11 09:14:53;;;;;;;3.03;1.90;;;;;;;;;;5133929;27;20062;-78
2023/06/11 09:17:19;;;;;;;2.28;2.08;;;;;;;;;;5133268;27;20031;-78
2023/06/11 09:19:45;;;;;;;2.30;1.75;;;;;;;;;;5114309;27;20039;-79
2023/06/11 09:22:11;;;;;;;2.80;1.83;;;;;;;;;;5098010;27;20492;-77
2023/06/11 09:24:37;;;;;;;1.63;1.60;;;;;;;;;;5133049;27;20038;-78
2023/06/11 09:27:05;;;;;;;2.10;1.80;;;;;;;;;;5132985;27;20446;-77
2023/06/11 09:29:31;;;;;;;2.03;1.92;;;;;;;;;;5097410;27;20497;-76
2023/06/11 09:32:03;;;;;;;8.50;2.05;;;;;;;;;;5113231;27;20459;-78
2023/06/11 09:34:29;;;;;;;1.67;1.60;;;;;;;;;;5114287;27;20058;-77
2023/06/11 09:36:56;;;;;;;1.90;1.80;;;;;;;;;;5132874;27;20118;-77
2023/06/11 09:39:22;;;;;;;1.98;1.70;;;;;;;;;;5132565;27;20291;-77
2023/06/11 09:41:48;;;;;;;2.80;2.10;;;;;;;;;;5114217;27;20049;-79
2023/06/11 09:44:18;;;;;;;1.83;1.67;;;;;;;;;;5132713;27;20023;-78
2023/06/11 09:46:44;;;;;;;2.67;2.20;;;;;;;;;;5113905;27;20039;-78
2023/06/11 09:49:11;;;;;;;2.92;1.90;;;;;;;;;;5132413;27;20516;-78
2023/06/11 09:51:37;;;;;;;2.03;1.92;;;;;;;;;;5132445;27;20117;-79
2023/06/11 09:54:03;;;;;;;1.80;1.70;;;;;;;;;;5114009;27;20031;-79
2023/06/11 09:56:29;;;;;;;3.65;2.33;;;;;;;;;;5132586;27;20035;-78
2023/06/11 09:58:56;;;;;;;3.30;2.17;;;;;;;;;;5132505;27;20031;-78
2023/06/11 10:01:24;;;;;;;2.58;1.85;;;;;;;;;;5132609;27;20039;-78
2023/06/11 10:03:50;;;;;;;2.05;1.77;;;;;;;;;;5113713;27;20031;-78
2023/06/11 10:06:19;;;;;;;2.72;1.70;;;;;;;;;;5132766;27;20092;-78
2023/06/11 10:08:45;;;;;;;2.08;1.98;;;;;;;;;;5132482;27;20047;-78
2023/06/11 10:11:11;;;;;;;2.45;2.05;;;;;;;;;;5136630;27;20080;-78
2023/06/11 10:13:37;;;;;;;2.03;1.92;;;;;;;;;;5139399;27;20038;-78
2023/06/11 10:16:04;;;;;;;2.90;1.90;;;;;;;;;;5121393;27;20035;-77
2023/06/11 10:18:30;;;;;;;3.60;2.55;;;;;;;;;;5121092;27;20182;-78
2023/06/11 10:20:57;;;;;;;2.10;2.00;;;;;;;;;;5104057;27;20071;-78
2023/06/11 10:23:38;;;;;;;2.45;2.30;;;;;;;;;;5123442;27;20035;-78
2023/06/11 10:26:05;;;;;;;1.98;1.88;;;;;;;;;;5139901;27;20473;-79
2023/06/11 10:28:37;;;;;;;2.92;1.80;;;;;;;;;;5145152;27;20055;-77
2023/06/11 10:31:04;;;;;;;2.42;1.65;;;;;;;;;;5145098;27;20065;-78
2023/06/11 10:33:36;;;;;;;4.20;3.35;;;;;;;;;;5143992;27;20143;-79
2023/06/11 10:36:03;;;;;;;2.00;1.90;;;;;;;;;;5142262;27;20035;-79
2023/06/11 10:38:29;;;;;;;1.85;1.75;;;;;;;;;;5136110;27;20054;-79
2023/06/11 10:41:02;;;;;;;1.80;1.70;;;;;;;;;;5114155;27;20497;-79
2023/06/11 10:43:28;;;;;;;2.97;1.73;;;;;;;;;;5132490;27;20038;-79
2023/06/11 10:46:01;;;;;;;1.80;1.70;;;;;;;;;;5113972;27;20049;-78
2023/06/11 10:48:30;;;;;;;1.90;1.80;;;;;;;;;;5116929;27;20039;-78
2023/06/11 10:51:02;;;;;;;2.35;1.80;;;;;;;;;;5119544;27;20041;-78
2023/06/11 10:53:39;;;;;;;2.38;2.00;;;;;;;;;;5135629;27;20119;-80
2023/06/11 10:56:06;;;;;;;2.80;2.00;;;;;;;;;;5131783;27;20118;-78
2023/06/11 10:58:32;;;;;;;4.00;1.80;;;;;;;;;;5131675;27;20038;-78
2023/06/11 11:00:58;;;;;;;2.90;1.95;;;;;;;;;;5131521;27;20122;-79
2023/06/11 11:03:25;;;;;;;5.57;1.88;;;;;;;;;;5113183;27;20569;-79
2023/06/11 11:05:52;;;;;;;2.00;1.90;;;;;;;;;;5131635;27;20073;-79
2023/06/11 11:08:18;;;;;;;2.67;2.10;;;;;;;;;;5131061;27;20090;-79
2023/06/11 11:10:44;;;;;;;1.65;1.55;;;;;;;;;;5131364;27;20083;-79
2023/06/11 11:13:11;;;;;;;1.83;1.73;;;;;;;;;;5131020;27;20084;-79
2023/06/11 11:15:37;;;;;;;1.75;1.63;;;;;;;;;;5131294;27;20114;-79
2023/06/11 11:18:03;;;;;;;1.50;1.50;;;;;;;;;;5130726;27;20454;-77
2023/06/11 11:20:32;;;;;;;1.88;1.70;;;;;;;;;;5130975;27;20059;-78
2023/06/11 11:22:59;;;;;;;2.00;1.90;;;;;;;;;;5130991;27;20031;-78
2023/06/11 11:25:25;;;;;;;4.47;1.77;;;;;;;;;;5095799;27;20255;-79
2023/06/11 11:27:51;;;;;;;2.65;1.70;;;;;;;;;;5130762;27;20032;-78
2023/06/11 11:30:17;;;;;;;2.03;1.67;;;;;;;;;;5131049;27;20081;-78
2023/06/11 11:32:44;;;;;;;2.63;2.00;;;;;;;;;;5112624;28;20409;-78
2023/06/11 11:35:11;;;;;;;5.65;2.22;;;;;;;;;;5130648;27;20452;-78
2023/06/11 11:37:37;;;;;;;3.17;1.73;;;;;;;;;;5131098;27;20089;-78
2023/06/11 11:40:06;;;;;;;2.60;2.40;;;;;;;;;;5095194;27;20035;-78
2023/06/11 11:42:46;;;;;;;2.10;1.90;;;;;;;;;;5130895;27;20244;-78
2023/06/11 11:45:13;;;;;;;3.00;1.75;;;;;;;;;;5112214;27;20086;-76
2023/06/11 11:47:40;;;;;;;3.58;1.80;;;;;;;;;;5112474;27;20031;-77
2023/06/11 11:50:10;;;;;;;2.45;2.17;;;;;;;;;;5112359;28;20035;-77
2023/06/11 11:52:37;;;;;;;1.92;1.83;;;;;;;;;;5131076;27;20224;-77
2023/06/11 11:55:03;;;;;;;1.90;1.80;;;;;;;;;;5131577;27;20509;-77
2023/06/11 11:57:30;;;;;;;3.03;1.80;;;;;;;;;;5116583;27;20046;-78
2023/06/11 11:59:56;;;;;;;2.38;2.15;;;;;;;;;;5134265;27;20041;-78
2023/06/11 12:02:26;;;;;;;2.08;1.80;;;;;;;;;;5099528;27;20046;-77
2023/06/11 12:04:57;;;;;;;2.00;1.80;;;;;;;;;;5134260;27;20038;-77
2023/06/11 12:07:23;;;;;;;;;;;;;;;;;;5117388;27;20039;-77
2023/06/11 12:09:49;;;;;;;2.85;1.73;;;;;;;;;;5134081;27;20387;-78
2023/06/11 12:12:15;;;;;;;3.65;1.80;;;;;;;;;;5134331;27;20043;-77
2023/06/11 12:14:41;;;;;;;2.13;1.75;;;;;;;;;;5099364;27;20046;-78
2023/06/11 12:17:10;;;;;;;3.10;2.60;;;;;;;;;;5134757;27;20016;-78
2023/06/11 12:19:35;;;;;;;1.80;1.70;;;;;;;;;;5138265;27;20037;-78
2023/06/11 12:22:03;;;;;;;2.22;2.13;;;;;;;;;;5134569;27;20130;-77
2023/06/11 12:24:29;;;;;;;2.05;1.95;;;;;;;;;;5098720;27;20157;-77
2023/06/11 12:26:56;;;;;;;4.30;2.05;;;;;;;;;;5115298;27;20038;-77
2023/06/11 12:29:22;;;;;;;2.22;2.05;;;;;;;;;;5133918;27;20053;-79
2023/06/11 12:31:48;;;;;;;5.93;2.10;;;;;;;;;;5134002;27;20035;-78
2023/06/11 12:34:15;;;;;;;2.60;2.40;;;;;;;;;;5115270;27;20039;-78
2023/06/11 12:36:45;;;;;;;2.55;2.33;;;;;;;;;;5133916;27;20045;-78
2023/06/11 12:39:11;;;;;;;2.15;1.98;;;;;;;;;;5133628;27;20406;-78
2023/06/11 12:41:37;;;;;;;8.10;3.33;;;;;;;;;;5133673;27;20027;-77
2023/06/11 12:44:03;;;;;;;4.25;2.50;;;;;;;;;;5133368;27;20029;-78
2023/06/11 12:46:33;;;;;;;2.35;1.67;;;;;;;;;;5134210;27;20114;-78
2023/06/11 12:48:59;;;;;;;3.50;2.00;;;;;;;;;;5133904;27;20035;-78
2023/06/11 12:51:25;;;;;;;2.65;2.05;;;;;;;;;;5116146;27;20519;-79
2023/06/11 12:53:52;;;;;;;2.03;1.92;;;;;;;;;;5116028;27;20158;-78
2023/06/11 12:56:18;;;;;;;2.42;2.17;;;;;;;;;;5133469;27;20497;-79
2023/06/11 12:58:44;;;;;;;5.07;2.75;;;;;;;;;;5115476;27;20023;-78
2023/06/11 13:01:10;;;;;;;3.50;1.90;;;;;;;;;;5133965;27;20066;-77
2023/06/11 13:03:36;;;;;;;2.78;2.10;;;;;;;;;;5115809;27;20536;-78
2023/06/11 13:06:02;;;;;;;4.13;2.03;;;;;;;;;;5133655;27;20047;-78
2023/06/11 13:08:29;;;;;;;5.20;2.13;;;;;;;;;;5116043;27;20677;-79
2023/06/11 13:10:55;;;;;;;3.10;2.53;;;;;;;;;;5133678;27;20074;-77
2023/06/11 13:13:21;;;;;;;2.70;2.17;;;;;;;;;;5133734;27;20031;-78
2023/06/11 13:15:47;;;;;;;1.90;1.80;;;;;;;;;;5115122;27;20546;-78
2023/06/11 13:18:13;;;;;;;12.52;2.25;;;;;;;;;;5133179;27;20032;-77
2023/06/11 13:20:39;;;;;;;2.35;2.15;;;;;;;;;;5132920;27;20387;-78
2023/06/11 13:23:05;;;;;;;2.20;2.00;;;;;;;;;;5114699;27;20030;-77
2023/06/11 13:25:32;;;;;;;2.28;2.08;;;;;;;;;;5132945;27;20039;-78
2023/06/11 13:27:58;;;;;;;3.60;1.90;;;;;;;;;;5114673;27;20042;-76
2023/06/11 13:30:24;;;;;;;3.63;1.80;;;;;;;;;;5132761;27;20500;-79
2023/06/11 13:32:50;;;;;;;2.75;2.03;;;;;;;;;;5114675;27;20030;-77
2023/06/11 13:35:16;;;;;;;3.88;2.00;;;;;;;;;;5132395;27;20467;-77
2023/06/11 13:37:43;;;;;;;2.53;1.90;;;;;;;;;;5114286;27;20020;-78
2023/06/11 13:40:09;;;;;;;4.50;3.10;;;;;;;;;;5132439;27;20099;-76
2023/06/11 13:42:35;;;;;;;1.80;1.65;;;;;;;;;;5132724;27;20520;-78
2023/06/11 13:45:02;;;;;;;3.45;2.20;;;;;;;;;;5132457;27;20043;-77
2023/06/11 13:47:31;;;;;;;2.10;1.98;;;;;;;;;;5132937;27;20031;-78
2023/06/11 13:49:57;;;;;;;2.70;2.10;;;;;;;;;;5133056;27;20053;-78
2023/06/11 13:52:24;;;;;;;7.68;2.30;;;;;;;;;;5135838;27;20065;-77
2023/06/11 13:54:50;;;;;;;2.63;2.22;;;;;;;;;;5135429;27;20178;-78
2023/06/11 13:57:17;;;;;;;3.10;2.47;;;;;;;;;;5116240;27;20077;-77
2023/06/11 13:59:43;;;;;;;4.28;2.30;;;;;;;;;;5119154;27;20400;-77
2023/06/11 14:02:08;;;;;;;5.93;2.20;;;;;;;;;;5133185;27;20035;-78
2023/06/11 14:04:34;;;;;;;2.97;2.20;;;;;;;;;;5151392;27;20025;-77
2023/06/11 14:07:03;;;;;;;2.35;1.92;;;;;;;;;;5117069;27;20063;-78
2023/06/11 14:09:29;;;;;;;2.75;2.55;;;;;;;;;;5132102;27;20046;-78
2023/06/11 14:11:55;;;;;;;4.15;2.30;;;;;;;;;;5113956;27;20095;-78
2023/06/11 14:14:23;;;;;;;3.67;2.30;;;;;;;;;;5131928;27;20058;-78
2023/06/11 14:16:49;;;;;;;2.60;2.40;;;;;;;;;;5132259;27;20037;-78
2023/06/11 14:19:15;;;;;;;3.03;2.15;;;;;;;;;;5131186;27;20121;-78
2023/06/11 14:21:41;;;;;;;3.95;2.00;;;;;;;;;;5113696;27;20497;-77
2023/06/11 14:24:09;;;;;;;7.60;2.08;;;;;;;;;;5131706;27;20034;-78
2023/06/11 14:26:35;;;;;;;3.50;2.08;;;;;;;;;;5131789;27;20406;-78
2023/06/11 14:29:01;;;;;;;3.63;2.13;;;;;;;;;;5112984;27;20050;-77
2023/06/11 14:31:27;;;;;;;3.78;2.10;;;;;;;;;;5113223;27;20077;-77
2023/06/11 14:33:54;;;;;;;9.68;2.10;;;;;;;;;;5131666;27;20096;-78
2023/06/11 14:36:19;;;;;;;2.30;2.10;;;;;;;;;;5112800;27;20031;-78
2023/06/11 14:38:45;;;;;;;4.82;2.30;;;;;;;;;;5113264;27;20570;-78
2023/06/11 14:41:11;;;;;;;2.47;1.90;;;;;;;;;;5131268;27;20061;-78
2023/06/11 14:43:38;;;;;;;1.92;1.83;;;;;;;;;;5113482;27;20091;-78